Time;durP1;ratioP1;P1;durP2;ratioP2;P2;SDS_P1;SDS_P2;PMS_P1;PMS_P2;Temp;Humidity;BMP_temperature;BMP_pressure;BME280_temperature;BME280_humidity;BME280_pressure;Samples;Min_cycle;Max_cycle;Signal;HPM_P1;HPM_P2
2023/04/07 00:00:07;;;;;;;73.38;37.35;;;7.60;99.90;;;;;;5071258;28;20423;-53
2023/04/07 00:02:32;;;;;;;82.00;39.08;;;8.20;99.90;;;;;;5070774;28;20036;-57
2023/04/07 00:04:58;;;;;;;79.20;40.20;;;7.50;99.90;;;;;;5070897;28;20111;-53
2023/04/07 00:07:24;;;;;;;82.32;39.65;;;8.10;99.90;;;;;;5071194;28;20047;-47
2023/04/07 00:09:50;;;;;;;77.53;38.13;;;7.80;99.90;;;;;;5071012;28;20552;-53
2023/04/07 00:12:15;;;;;;;80.38;38.42;;;7.70;99.90;;;;;;5071134;28;20036;-56
2023/04/07 00:14:41;;;;;;;82.13;39.55;;;7.90;99.90;;;;;;5071077;28;20039;-52
2023/04/07 00:17:07;;;;;;;87.25;40.55;;;8.30;99.90;;;;;;5070713;28;20052;-59
2023/04/07 00:19:33;;;;;;;83.35;38.65;;;8.20;99.90;;;;;;5070663;28;20107;-55
2023/04/07 00:21:59;;;;;;;84.07;40.20;;;8.00;99.90;;;;;;5070571;28;20107;-59
2023/04/07 00:24:25;;;;;;;89.53;42.13;;;8.30;99.90;;;;;;5070609;28;20115;-56
2023/04/07 00:26:50;;;;;;;94.47;40.63;;;8.30;99.90;;;;;;5070829;28;20036;-53
2023/04/07 00:29:16;;;;;;;87.68;40.03;;;8.30;99.90;;;;;;5070549;28;20487;-51
2023/04/07 00:31:42;;;;;;;85.90;40.03;;;7.70;99.90;;;;;;5060526;28;20071;-52
2023/04/07 00:34:07;;;;;;;85.07;38.38;;;7.70;99.90;;;;;;5066372;28;20036;-59
2023/04/07 00:36:33;;;;;;;90.80;41.22;;;7.60;99.90;;;;;;5070983;28;20060;-51
2023/04/07 00:38:59;;;;;;;89.57;39.83;;;8.40;99.90;;;;;;5052496;28;20041;-56
2023/04/07 00:41:24;;;;;;;96.00;41.60;;;7.60;99.90;;;;;;5069165;28;20128;-53
2023/04/07 00:43:50;;;;;;;97.85;41.50;;;8.30;99.90;;;;;;5069241;28;20121;-53
2023/04/07 00:46:21;;;;;;;97.40;42.10;;;8.00;99.90;;;;;;5070821;28;20044;-55
2023/04/07 00:48:46;;;;;;;100.10;41.78;;;7.80;99.90;;;;;;5070938;28;20040;-57
2023/04/07 00:51:12;;;;;;;98.82;40.88;;;8.40;99.90;;;;;;5068868;28;20391;-48
2023/04/07 00:53:38;;;;;;;106.03;42.65;;;8.40;99.90;;;;;;5070260;28;20048;-55
2023/04/07 00:56:04;;;;;;;109.18;42.92;;;8.10;99.90;;;;;;5070598;28;20037;-51
2023/04/07 00:58:30;;;;;;;105.88;41.40;;;7.70;99.90;;;;;;5070020;28;20051;-56
2023/04/07 01:01:06;;;;;;;96.85;41.03;;;8.40;99.90;;;;;;5070205;28;20127;-55
2023/04/07 01:03:51;;;;;;;100.07;40.63;;;8.30;99.90;;;;;;5070442;28;20044;-57
2023/04/07 01:06:21;;;;;;;98.97;40.65;;;7.70;99.90;;;;;;5070165;28;20048;-56
2023/04/07 01:08:53;;;;;;;96.93;42.00;;;8.40;99.90;;;;;;5059354;28;20357;-50
2023/04/07 01:11:56;;;;;;;94.13;39.13;;;8.10;99.90;;;;;;5070000;28;20066;-56
2023/04/07 01:14:23;;;;;;;96.10;37.90;;;8.30;99.90;;;;;;5068488;28;20032;-59
2023/04/07 01:16:51;;;;;;;99.13;40.60;;;7.70;99.90;;;;;;5068752;28;20373;-57
2023/04/07 01:19:44;;;;;;;104.40;41.58;;;7.70;99.90;;;;;;5070212;28;20041;-55
2023/04/07 01:22:13;;;;;;;115.03;40.53;;;8.50;99.90;;;;;;5069223;28;20042;-51
2023/04/07 01:25:12;;;;;;;115.72;41.95;;;8.50;99.90;;;;;;5068537;28;20119;-57
2023/04/07 01:28:00;;;;;;;106.03;39.55;;;8.40;99.90;;;;;;5069970;28;20063;-55
2023/04/07 01:30:36;;;;;;;112.45;40.05;;;7.70;99.90;;;;;;5070055;28;20178;-55
2023/04/07 01:33:05;;;;;;;103.38;38.28;;;8.50;99.90;;;;;;5069625;28;20067;-50
2023/04/07 01:35:33;;;;;;;104.05;37.03;;;8.50;99.90;;;;;;5068377;28;20036;-53
2023/04/07 01:38:00;;;;;;;100.22;36.53;;;7.80;99.90;;;;;;5069975;28;20816;-60
2023/04/07 01:40:27;;;;;;;134.70;39.65;;;7.80;99.90;;;;;;5070163;28;20568;-49
2023/04/07 01:42:55;;;;;;;102.90;37.00;;;8.60;99.90;;;;;;5070145;28;20472;-53
2023/04/07 01:45:22;;;;;;;86.55;31.38;;;7.90;99.90;;;;;;5068467;28;20043;-57
2023/04/07 01:47:49;;;;;;;96.60;30.63;;;8.20;99.90;;;;;;5069814;28;20103;-58
2023/04/07 01:50:15;;;;;;;91.50;29.02;;;8.10;99.90;;;;;;5067998;28;20051;-56
2023/04/07 01:52:42;;;;;;;57.92;22.52;;;8.40;99.90;;;;;;5069752;28;20040;-54
2023/04/07 01:55:08;;;;;;;69.63;23.80;;;7.90;99.90;;;;;;5070182;28;20108;-57
2023/04/07 01:57:34;;;;;;;67.32;22.20;;;8.70;99.90;;;;;;5069767;28;20036;-53
2023/04/07 02:00:00;;;;;;;66.57;18.20;;;8.50;99.90;;;;;;5069566;28;20032;-56
2023/04/07 02:02:27;;;;;;;54.05;16.27;;;8.40;99.90;;;;;;5069953;28;20131;-53
2023/04/07 02:05:04;;;;;;;57.28;15.75;;;8.50;99.90;;;;;;5069438;28;20123;-53
2023/04/07 02:07:41;;;;;;;67.13;15.82;;;8.10;99.90;;;;;;5069607;28;20037;-58
2023/04/07 02:10:11;;;;;;;55.50;14.88;;;8.30;99.90;;;;;;5069619;28;20041;-53
2023/04/07 02:12:38;;;;;;;61.15;14.32;;;8.00;99.90;;;;;;5069550;28;20090;-49
2023/04/07 02:15:07;;;;;;;62.90;15.20;;;8.80;99.90;;;;;;5069606;28;20484;-53
2023/04/07 02:17:34;;;;;;;49.78;15.48;;;8.70;99.90;;;;;;5056046;28;20496;-54
2023/04/07 02:20:01;;;;;;;54.03;14.35;;;8.30;99.90;;;;;;5069347;28;20037;-54
2023/04/07 02:22:27;;;;;;;58.70;13.55;;;8.10;99.90;;;;;;5069253;28;20475;-51
2023/04/07 02:24:53;;;;;;;44.80;12.98;;;8.40;99.90;;;;;;5071668;28;20032;-53
2023/04/07 02:27:19;;;;;;;58.00;14.50;;;8.70;99.90;;;;;;5073052;28;20040;-56
2023/04/07 02:29:45;;;;;;;44.50;13.93;;;8.40;99.90;;;;;;5073537;28;20036;-52
2023/04/07 02:32:11;;;;;;;58.88;14.48;;;8.30;99.90;;;;;;5073700;28;20059;-52
2023/04/07 02:34:36;;;;;;;48.45;13.50;;;8.10;99.90;;;;;;5073502;28;20040;-52
2023/04/07 02:37:02;;;;;;;47.22;12.43;;;8.90;99.90;;;;;;5073022;28;20048;-52
2023/04/07 02:39:28;;;;;;;54.55;13.05;;;9.00;99.90;;;;;;5073146;28;20059;-50
2023/04/07 02:41:53;;;;;;;60.03;14.82;;;8.10;99.90;;;;;;5071825;28;20036;-55
2023/04/07 02:44:19;;;;;;;45.95;13.23;;;8.80;99.90;;;;;;5073016;28;20033;-59
2023/04/07 02:46:45;;;;;;;49.10;13.73;;;8.80;99.90;;;;;;5072997;28;20384;-62
2023/04/07 02:49:10;;;;;;;42.13;13.57;;;8.10;99.90;;;;;;5071174;28;20079;-55
2023/04/07 02:51:36;;;;;;;49.83;13.38;;;8.20;99.90;;;;;;5072664;28;20134;-56
2023/04/07 02:54:02;;;;;;;40.15;12.60;;;8.80;99.90;;;;;;5072676;28;20177;-51
2023/04/07 02:56:27;;;;;;;37.42;12.85;;;8.70;99.90;;;;;;5072871;28;20040;-54
2023/04/07 02:58:53;;;;;;;37.75;12.90;;;8.50;99.90;;;;;;5071375;28;20048;-51
2023/04/07 03:01:19;;;;;;;35.47;11.93;;;8.20;99.90;;;;;;5072578;28;20129;-57
2023/04/07 03:03:46;;;;;;;37.15;12.38;;;8.30;99.90;;;;;;5072078;28;20496;-52
2023/04/07 03:06:12;;;;;;;39.38;12.00;;;8.90;99.90;;;;;;5054457;28;20039;-52
2023/04/07 03:08:38;;;;;;;32.85;11.75;;;8.50;99.90;;;;;;5072585;28;20051;-55
2023/04/07 03:11:04;;;;;;;32.65;11.77;;;8.30;99.90;;;;;;5071243;28;20119;-54
2023/04/07 03:13:30;;;;;;;42.40;12.73;;;8.10;99.90;;;;;;5070924;28;20123;-48
2023/04/07 03:15:56;;;;;;;33.70;12.50;;;8.50;99.90;;;;;;5071442;28;20414;-54
2023/04/07 03:18:22;;;;;;;40.85;13.18;;;8.90;99.90;;;;;;5072300;28;20060;-56
2023/04/07 03:20:48;;;;;;;42.08;12.23;;;8.20;99.90;;;;;;5070439;28;20114;-55
2023/04/07 03:23:14;;;;;;;33.75;13.20;;;8.60;99.90;;;;;;5072248;28;20115;-51
2023/04/07 03:25:40;;;;;;;35.88;12.25;;;8.30;99.90;;;;;;5070679;28;20037;-56
2023/04/07 03:28:06;;;;;;;39.72;11.77;;;8.20;99.90;;;;;;5071729;28;20191;-59
2023/04/07 03:30:32;;;;;;;33.35;11.90;;;8.50;99.90;;;;;;5072086;28;20064;-50
2023/04/07 03:32:57;;;;;;;37.17;12.50;;;8.90;99.90;;;;;;5072181;28;20076;-57
2023/04/07 03:35:23;;;;;;;37.70;11.98;;;8.90;99.90;;;;;;5071952;28;20033;-54
2023/04/07 03:37:49;;;;;;;43.60;14.30;;;8.60;99.90;;;;;;5070465;28;20039;-55
2023/04/07 03:40:14;;;;;;;39.20;12.68;;;8.90;99.90;;;;;;5071907;28;20041;-55
2023/04/07 03:42:40;;;;;;;45.03;13.35;;;8.20;99.90;;;;;;5071643;28;20082;-52
2023/04/07 03:45:06;;;;;;;50.13;13.63;;;8.20;99.90;;;;;;5071835;28;20101;-55
2023/04/07 03:47:32;;;;;;;31.65;13.18;;;8.20;99.90;;;;;;5071510;28;20068;-56
2023/04/07 03:49:58;;;;;;;35.08;12.25;;;8.70;99.90;;;;;;5071681;28;20072;-52
2023/04/07 03:52:23;;;;;;;36.70;12.10;;;8.20;99.90;;;;;;5071010;28;20040;-55
2023/04/07 03:54:49;;;;;;;37.85;12.30;;;8.20;99.90;;;;;;5071928;28;20069;-51
2023/04/07 03:57:15;;;;;;;33.05;12.35;;;8.50;99.90;;;;;;5071123;28;20055;-55
2023/04/07 03:59:41;;;;;;;39.00;12.82;;;8.10;99.90;;;;;;5071452;28;20051;-56
2023/04/07 04:02:06;;;;;;;30.10;13.52;;;8.30;99.90;;;;;;5069743;28;20068;-56
2023/04/07 04:04:32;;;;;;;33.50;11.95;;;8.70;99.90;;;;;;5070856;28;20115;-60
2023/04/07 04:06:58;;;;;;;38.97;12.55;;;8.90;99.90;;;;;;5069741;28;20114;-54
2023/04/07 04:09:23;;;;;;;34.97;11.88;;;9.30;99.90;;;;;;5071170;28;20098;-56
2023/04/07 04:11:49;;;;;;;34.15;11.77;;;8.20;99.90;;;;;;5070838;28;20051;-58
2023/04/07 04:14:16;;;;;;;31.05;11.35;;;8.90;99.90;;;;;;5069982;28;20190;-54
2023/04/07 04:16:42;;;;;;;34.38;12.00;;;8.60;99.90;;;;;;5070950;28;20589;-55
2023/04/07 04:19:07;;;;;;;31.52;11.25;;;8.20;99.90;;;;;;5071451;28;20115;-52
2023/04/07 04:21:33;;;;;;;38.90;12.48;;;9.00;99.90;;;;;;5070657;28;20047;-54
2023/04/07 04:23:59;;;;;;;35.90;12.10;;;8.80;99.90;;;;;;5071375;28;20032;-48
2023/04/07 04:26:25;;;;;;;32.08;11.90;;;8.30;99.90;;;;;;5070771;28;20111;-54
2023/04/07 04:28:51;;;;;;;30.33;11.63;;;8.70;99.90;;;;;;5071201;28;20056;-53
2023/04/07 04:31:17;;;;;;;33.75;12.27;;;9.00;99.90;;;;;;5071089;28;20460;-56
2023/04/07 04:33:43;;;;;;;32.85;11.90;;;8.90;99.90;;;;;;5070939;28;20039;-57
2023/04/07 04:36:09;;;;;;;32.20;12.13;;;8.50;99.90;;;;;;5070882;28;20468;-57
2023/04/07 04:38:34;;;;;;;31.48;11.95;;;8.20;99.90;;;;;;5070786;28;20033;-53
2023/04/07 04:41:00;;;;;;;42.38;12.63;;;8.30;99.90;;;;;;5070741;28;20072;-55
2023/04/07 04:43:26;;;;;;;41.25;13.07;;;8.80;99.90;;;;;;5070571;28;20090;-49
2023/04/07 04:45:52;;;;;;;36.40;12.55;;;8.90;99.90;;;;;;5070943;28;20111;-53
2023/04/07 04:48:17;;;;;;;33.80;11.98;;;8.30;99.90;;;;;;5070193;28;20097;-55
2023/04/07 04:50:43;;;;;;;42.20;12.55;;;8.40;99.90;;;;;;5070284;28;20039;-52
2023/04/07 04:53:09;;;;;;;35.75;11.70;;;8.20;99.90;;;;;;5070633;28;20078;-59
2023/04/07 04:55:35;;;;;;;31.40;11.93;;;8.30;99.90;;;;;;5070614;28;20044;-54
2023/04/07 04:58:01;;;;;;;34.90;11.38;;;8.20;99.90;;;;;;5069540;28;20028;-53
2023/04/07 05:00:26;;;;;;;37.13;11.90;;;8.80;99.90;;;;;;5070263;28;20135;-58
2023/04/07 05:02:53;;;;;;;38.40;12.80;;;8.90;99.90;;;;;;5068900;28;20395;-55
2023/04/07 05:05:19;;;;;;;29.42;11.88;;;9.00;99.90;;;;;;5070109;28;20044;-47
2023/04/07 05:07:44;;;;;;;28.30;10.63;;;8.60;99.90;;;;;;5070110;28;20093;-50
2023/04/07 05:10:10;;;;;;;28.85;10.95;;;8.40;99.90;;;;;;5070423;28;20113;-55
2023/04/07 05:12:36;;;;;;;30.20;10.70;;;9.00;99.90;;;;;;5070179;28;20039;-57
2023/04/07 05:15:02;;;;;;;34.30;11.38;;;8.90;99.90;;;;;;5070095;28;20037;-57
2023/04/07 05:17:28;;;;;;;22.52;10.32;;;8.40;99.90;;;;;;5069739;28;20514;-54
2023/04/07 05:19:54;;;;;;;25.73;10.45;;;8.30;99.90;;;;;;5067456;28;20055;-51
2023/04/07 05:22:20;;;;;;;29.80;10.43;;;8.40;99.90;;;;;;5069889;28;20043;-54
2023/04/07 05:24:45;;;;;;;25.20;10.73;;;9.00;99.90;;;;;;5070568;28;20076;-56
2023/04/07 05:27:11;;;;;;;31.23;10.25;;;8.30;99.90;;;;;;5070731;28;20117;-53
2023/04/07 05:29:37;;;;;;;30.20;11.88;;;8.40;99.90;;;;;;5062830;28;20112;-54
2023/04/07 05:32:04;;;;;;;33.55;11.65;;;8.30;99.90;;;;;;5069118;28;20106;-55
2023/04/07 05:34:30;;;;;;;27.95;11.63;;;8.40;99.90;;;;;;5068775;28;20044;-53
2023/04/07 05:36:56;;;;;;;27.77;10.80;;;8.20;99.90;;;;;;5069160;28;20055;-53
2023/04/07 05:39:22;;;;;;;35.97;12.30;;;8.60;99.90;;;;;;5069970;28;20071;-55
2023/04/07 05:41:48;;;;;;;28.35;12.48;;;8.30;99.90;;;;;;5069939;28;20063;-55
2023/04/07 05:44:14;;;;;;;31.63;11.40;;;8.50;99.90;;;;;;5069981;28;20041;-57
2023/04/07 05:46:39;;;;;;;34.28;11.50;;;8.50;99.90;;;;;;5070064;28;20075;-52
2023/04/07 05:49:05;;;;;;;38.97;11.52;;;8.50;99.90;;;;;;5068649;28;20124;-55
2023/04/07 05:51:31;;;;;;;27.25;11.32;;;9.00;99.90;;;;;;5065629;28;20063;-56
2023/04/07 05:54:00;;;;;;;34.97;11.90;;;9.00;99.90;;;;;;5068915;28;20075;-57
2023/04/07 05:56:26;;;;;;;31.17;10.82;;;9.00;99.90;;;;;;5069762;28;20037;-57
2023/04/07 05:58:52;;;;;;;34.33;12.20;;;9.10;99.90;;;;;;5070211;28;20376;-47
2023/04/07 06:01:18;;;;;;;30.98;11.82;;;8.40;99.90;;;;;;5073859;28;20032;-51
2023/04/07 06:03:44;;;;;;;33.67;11.00;;;9.10;99.90;;;;;;5073651;28;20033;-53
2023/04/07 06:06:09;;;;;;;42.00;11.80;;;8.40;99.90;;;;;;5072493;28;20063;-59
2023/04/07 06:08:35;;;;;;;32.33;12.20;;;8.30;99.90;;;;;;5073376;28;20475;-58
2023/04/07 06:11:01;;;;;;;38.83;12.52;;;9.10;99.90;;;;;;5071853;28;20040;-56
2023/04/07 06:13:27;;;;;;;34.20;11.95;;;9.10;99.90;;;;;;5073540;28;20100;-56
2023/04/07 06:15:55;;;;;;;36.30;11.25;;;8.50;99.90;;;;;;5073411;28;20044;-54
2023/04/07 06:18:21;;;;;;;40.80;12.48;;;9.10;99.90;;;;;;5072553;28;20044;-59
2023/04/07 06:20:47;;;;;;;37.53;13.00;;;8.40;99.90;;;;;;5073207;28;20036;-54
2023/04/07 06:23:13;;;;;;;40.70;12.38;;;8.40;99.90;;;;;;5073915;28;20040;-58
2023/04/07 06:25:38;;;;;;;42.00;13.00;;;9.40;99.90;;;;;;5073425;28;20488;-54
2023/04/07 06:28:05;;;;;;;32.85;12.75;;;8.70;99.90;;;;;;5071656;28;20190;-52
2023/04/07 06:30:30;;;;;;;35.10;12.55;;;9.00;99.90;;;;;;5072837;28;20032;-58
2023/04/07 06:32:56;;;;;;;33.33;12.30;;;9.10;99.90;;;;;;5072765;28;20093;-53
2023/04/07 06:35:22;;;;;;;39.03;12.82;;;9.10;99.90;;;;;;5073334;28;20036;-58
2023/04/07 06:37:47;;;;;;;36.50;13.55;;;8.60;99.90;;;;;;5073123;28;20107;-53
2023/04/07 06:40:13;;;;;;;37.22;12.75;;;9.30;99.90;;;;;;5073064;28;20036;-55
2023/04/07 06:42:39;;;;;;;35.88;12.93;;;9.30;99.90;;;;;;5073174;28;20122;-49
2023/04/07 06:45:05;;;;;;;42.17;12.63;;;9.00;99.90;;;;;;5072985;28;20052;-52
2023/04/07 06:47:31;;;;;;;33.10;12.95;;;9.40;99.90;;;;;;5071986;28;20051;-53
2023/04/07 06:49:56;;;;;;;33.58;12.15;;;8.70;99.90;;;;;;5072799;28;20123;-56
2023/04/07 06:52:22;;;;;;;34.38;12.80;;;9.50;99.90;;;;;;5072483;28;20408;-49
2023/04/07 06:54:48;;;;;;;33.45;12.07;;;9.40;99.90;;;;;;5072404;28;20391;-53
2023/04/07 06:57:13;;;;;;;31.77;12.07;;;9.20;99.90;;;;;;5071394;28;20033;-58
2023/04/07 06:59:39;;;;;;;20.95;10.25;;;9.00;99.90;;;;;;5071194;28;20044;-56
2023/04/07 07:02:06;;;;;;;28.70;11.18;;;9.60;99.90;;;;;;5060871;28;20447;-52
2023/04/07 07:04:33;;;;;;;30.45;12.02;;;8.90;99.90;;;;;;5060038;28;20044;-56
2023/04/07 07:06:59;;;;;;;22.85;10.65;;;9.40;99.90;;;;;;5062389;28;20498;-54
2023/04/07 07:09:26;;;;;;;25.30;11.20;;;9.00;99.90;;;;;;5056491;28;20160;-49
2023/04/07 07:11:52;;;;;;;24.30;11.05;;;9.10;99.90;;;;;;5060368;28;20428;-54
2023/04/07 07:14:18;;;;;;;24.80;10.82;;;9.50;99.90;;;;;;5060017;28;20033;-54
2023/04/07 07:16:43;;;;;;;31.48;14.30;;;9.70;99.90;;;;;;5059031;28;20042;-59
2023/04/07 07:19:09;;;;;;;34.70;16.85;;;9.70;99.90;;;;;;5056249;28;20094;-52
2023/04/07 07:21:35;;;;;;;34.63;18.05;;;8.90;99.90;;;;;;5058722;28;20039;-58
2023/04/07 07:24:01;;;;;;;31.73;17.85;;;9.30;99.90;;;;;;5058479;28;20031;-53
2023/04/07 07:26:27;;;;;;;32.67;19.40;;;9.50;99.90;;;;;;5061113;28;20029;-51
2023/04/07 07:28:52;;;;;;;35.58;20.15;;;9.50;99.90;;;;;;5063321;28;20040;-53
2023/04/07 07:31:18;;;;;;;34.97;19.60;;;9.10;99.90;;;;;;5062397;28;20032;-57
2023/04/07 07:33:45;;;;;;;33.33;19.23;;;9.10;99.90;;;;;;5059265;28;20043;-51
2023/04/07 07:36:11;;;;;;;33.55;19.85;;;9.20;99.90;;;;;;5060295;28;20108;-55
2023/04/07 07:38:37;;;;;;;32.90;19.08;;;8.80;99.90;;;;;;5059836;28;20126;-57
2023/04/07 07:41:03;;;;;;;33.95;20.25;;;9.00;99.90;;;;;;5057687;28;20082;-59
2023/04/07 07:43:29;;;;;;;34.17;20.10;;;9.60;99.90;;;;;;5058543;28;20382;-54
2023/04/07 07:45:55;;;;;;;30.80;18.50;;;9.10;99.90;;;;;;5058642;28;20044;-55
2023/04/07 07:48:20;;;;;;;33.60;20.48;;;9.00;99.90;;;;;;5057928;28;20792;-54
2023/04/07 07:50:47;;;;;;;33.60;20.05;;;9.50;99.90;;;;;;5060037;28;20032;-57
2023/04/07 07:53:12;;;;;;;31.92;19.63;;;8.80;99.90;;;;;;5057902;28;20067;-54
2023/04/07 07:55:38;;;;;;;28.90;18.73;;;8.90;99.90;;;;;;5058197;28;20055;-49
2023/04/07 07:58:04;;;;;;;29.67;18.02;;;8.90;99.90;;;;;;5057978;28;20045;-52
2023/04/07 08:00:30;;;;;;;28.67;19.10;;;8.70;99.90;;;;;;5058850;28;20445;-55
2023/04/07 08:02:55;;;;;;;29.75;17.70;;;8.80;99.90;;;;;;5055398;28;20098;-50
2023/04/07 08:05:21;;;;;;;27.48;17.15;;;9.00;99.90;;;;;;5058810;28;20029;-49
2023/04/07 08:07:47;;;;;;;25.20;17.15;;;8.80;99.90;;;;;;5058274;28;20032;-52
2023/04/07 08:10:13;;;;;;;26.17;16.85;;;9.00;99.90;;;;;;5056177;28;20043;-48
2023/04/07 08:12:39;;;;;;;27.65;17.98;;;9.20;99.90;;;;;;5056887;28;20472;-46
2023/04/07 08:15:08;;;;;;;25.95;16.98;;;8.70;99.90;;;;;;5056043;28;20048;-50
2023/04/07 08:17:35;;;;;;;26.85;16.98;;;8.80;99.90;;;;;;5057451;28;20102;-57
2023/04/07 08:20:01;;;;;;;28.13;17.75;;;9.20;99.90;;;;;;5058050;28;20039;-56
2023/04/07 08:22:27;;;;;;;23.48;16.88;;;8.50;99.90;;;;;;5057449;28;20150;-50
2023/04/07 08:24:53;;;;;;;24.17;15.88;;;9.30;99.90;;;;;;5059778;28;20037;-49
2023/04/07 08:27:20;;;;;;;27.42;17.30;;;8.70;99.90;;;;;;5058735;28;20033;-51
2023/04/07 08:29:56;;;;;;;27.88;18.00;;;9.30;99.90;;;;;;5057726;28;20111;-56
2023/04/07 08:32:22;;;;;;;24.33;16.25;;;9.50;99.90;;;;;;5062286;28;20933;-52
2023/04/07 08:34:48;;;;;;;26.33;17.25;;;9.60;99.90;;;;;;5062611;28;20036;-53
2023/04/07 08:37:13;;;;;;;26.92;18.17;;;9.30;99.90;;;;;;5056150;28;20469;-58
2023/04/07 08:39:39;;;;;;;29.23;17.98;;;9.00;99.90;;;;;;5057724;28;20032;-50
2023/04/07 08:42:07;;;;;;;25.35;15.65;;;9.20;99.90;;;;;;5058888;28;20055;-54
2023/04/07 08:44:37;;;;;;;25.58;16.52;;;9.80;99.90;;;;;;5057238;28;20623;-53
2023/04/07 08:47:06;;;;;;;23.05;15.48;;;9.60;99.90;;;;;;5061382;28;20555;-54
2023/04/07 08:49:36;;;;;;;20.90;14.80;;;9.50;99.90;;;;;;5062450;28;20475;-52
2023/04/07 08:52:05;;;;;;;23.58;15.90;;;10.00;99.90;;;;;;5058490;28;20043;-52
2023/04/07 08:54:32;;;;;;;19.42;12.68;;;9.50;99.90;;;;;;5058123;28;20040;-52
2023/04/07 08:57:00;;;;;;;18.02;13.40;;;9.40;99.90;;;;;;5056911;28;20094;-51
2023/04/07 08:59:28;;;;;;;14.35;10.88;;;9.60;99.90;;;;;;5058603;28;20036;-45
2023/04/07 09:01:55;;;;;;;15.65;12.07;;;9.70;99.90;;;;;;5058452;28;20036;-56
2023/04/07 09:04:26;;;;;;;15.70;11.32;;;10.10;99.90;;;;;;5056980;28;20021;-54
2023/04/07 09:06:52;;;;;;;15.68;11.75;;;10.10;99.90;;;;;;5056867;28;20036;-55
2023/04/07 09:09:17;;;;;;;18.33;11.52;;;9.60;99.90;;;;;;5058962;28;20514;-53
2023/04/07 09:11:43;;;;;;;14.50;11.32;;;9.60;99.90;;;;;;5056995;28;20029;-56
2023/04/07 09:14:09;;;;;;;14.95;10.70;;;9.40;99.90;;;;;;5058368;28;20048;-53
2023/04/07 09:16:35;;;;;;;13.85;9.88;;;9.90;99.90;;;;;;5058635;28;20594;-56
2023/04/07 09:19:01;;;;;;;13.38;9.48;;;9.40;99.90;;;;;;5057624;28;20139;-52
2023/04/07 09:21:49;;;;;;;12.18;8.90;;;9.90;99.90;;;;;;5057627;28;20047;-58
2023/04/07 09:24:27;;;;;;;12.15;8.07;;;9.50;99.90;;;;;;5060223;28;20120;-55
2023/04/07 09:27:14;;;;;;;11.30;7.85;;;9.90;99.90;;;;;;5059910;28;20047;-53
2023/04/07 09:29:41;;;;;;;10.05;7.18;;;9.70;99.90;;;;;;5058453;28;20068;-52
2023/04/07 09:32:08;;;;;;;11.73;7.15;;;10.00;99.90;;;;;;5058173;28;20052;-52
2023/04/07 09:34:36;;;;;;;9.90;6.78;;;9.70;99.90;;;;;;5061658;28;20055;-56
2023/04/07 09:37:03;;;;;;;8.77;6.25;;;9.40;99.90;;;;;;5062911;28;20380;-50
2023/04/07 09:39:29;;;;;;;8.18;5.50;;;9.50;99.90;;;;;;5060977;28;20028;-51
2023/04/07 09:41:55;;;;;;;7.70;6.10;;;9.50;99.90;;;;;;5063818;28;20044;-53
2023/04/07 09:44:21;;;;;;;10.57;7.78;;;9.30;99.90;;;;;;5061054;28;20055;-53
2023/04/07 09:46:55;;;;;;;16.40;9.55;;;9.80;99.90;;;;;;5061853;28;20044;-51
2023/04/07 09:49:21;;;;;;;12.32;10.38;;;9.50;99.90;;;;;;5062739;28;20043;-54
2023/04/07 09:52:06;;;;;;;13.18;10.90;;;9.90;99.90;;;;;;5060735;28;20037;-54
2023/04/07 09:54:36;;;;;;;18.63;10.50;;;9.70;99.90;;;;;;5062468;28;20415;-50
2023/04/07 09:57:03;;;;;;;16.20;11.18;;;9.70;99.90;;;;;;5061745;28;20064;-51
2023/04/07 09:59:30;;;;;;;17.05;12.38;;;9.50;99.90;;;;;;5062915;28;20031;-51
2023/04/07 10:01:56;;;;;;;16.02;11.32;;;9.50;99.90;;;;;;5062315;28;20040;-53
2023/04/07 10:04:23;;;;;;;15.07;11.48;;;9.70;99.90;;;;;;5062824;28;20024;-57
2023/04/07 10:06:50;;;;;;;15.80;11.00;;;9.50;99.90;;;;;;5061740;28;20032;-54
2023/04/07 10:09:16;;;;;;;17.15;12.43;;;9.30;99.90;;;;;;5061394;28;20036;-51
2023/04/07 10:11:43;;;;;;;14.45;11.80;;;10.00;99.90;;;;;;5063082;28;20028;-51
2023/04/07 10:14:10;;;;;;;17.88;13.57;;;9.80;99.90;;;;;;5062035;28;20033;-53
2023/04/07 10:16:41;;;;;;;18.50;13.68;;;9.80;99.90;;;;;;5059326;28;20032;-52
2023/04/07 10:19:07;;;;;;;18.75;14.38;;;9.40;99.90;;;;;;5061944;28;20052;-58
2023/04/07 10:21:41;;;;;;;19.95;16.10;;;9.50;99.90;;;;;;5062490;28;20040;-54
2023/04/07 10:24:25;;;;;;;18.23;14.63;;;9.60;99.90;;;;;;5068585;28;20055;-55
2023/04/07 10:26:55;;;;;;;20.52;15.32;;;9.80;99.90;;;;;;5072476;28;20491;-49
2023/04/07 10:29:23;;;;;;;23.90;18.48;;;9.90;99.90;;;;;;5069166;28;20544;-49
2023/04/07 10:31:49;;;;;;;21.27;16.63;;;9.60;99.90;;;;;;5066044;28;20119;-55
2023/04/07 10:34:15;;;;;;;20.27;16.00;;;9.70;99.90;;;;;;5070485;28;20041;-50
2023/04/07 10:37:12;;;;;;;19.42;15.77;;;10.00;99.90;;;;;;5071751;28;20476;-51
2023/04/07 10:39:38;;;;;;;18.67;13.55;;;10.00;99.90;;;;;;5072651;28;20041;-52
2023/04/07 10:42:04;;;;;;;18.92;14.73;;;10.10;99.90;;;;;;5071857;28;20040;-51
2023/04/07 10:44:42;;;;;;;18.00;13.75;;;10.10;99.90;;;;;;5070622;28;20165;-52
2023/04/07 10:47:08;;;;;;;15.80;12.35;;;10.10;99.90;;;;;;5070979;28;20105;-52
2023/04/07 10:49:34;;;;;;;15.35;13.07;;;10.30;99.90;;;;;;5071443;28;20040;-58
2023/04/07 10:52:12;;;;;;;15.98;12.68;;;10.40;99.90;;;;;;5069046;28;20048;-60
2023/04/07 10:54:38;;;;;;;14.65;10.75;;;10.10;99.90;;;;;;5070091;28;20484;-52
2023/04/07 10:57:12;;;;;;;14.90;11.25;;;10.20;99.90;;;;;;5069701;28;20132;-52
2023/04/07 11:00:01;;;;;;;14.43;11.13;;;10.20;99.90;;;;;;5070195;28;20048;-52
2023/04/07 11:02:27;;;;;;;13.77;10.80;;;9.90;99.90;;;;;;5069463;28;20545;-47
2023/04/07 11:04:52;;;;;;;14.23;10.27;;;10.20;99.90;;;;;;5070919;28;20040;-55
2023/04/07 11:07:19;;;;;;;14.95;12.00;;;10.00;99.90;;;;;;5069762;28;20052;-54
2023/04/07 11:09:45;;;;;;;11.73;10.02;;;10.30;99.90;;;;;;5069782;28;20044;-52
2023/04/07 11:12:31;;;;;;;13.57;10.27;;;10.40;99.90;;;;;;5071641;28;20044;-52
2023/04/07 11:14:58;;;;;;;12.27;9.63;;;10.50;99.90;;;;;;5053315;28;20060;-54
2023/04/07 11:17:26;;;;;;;11.40;9.15;;;10.40;99.90;;;;;;5070887;28;20036;-56
2023/04/07 11:19:52;;;;;;;13.63;8.98;;;10.40;99.90;;;;;;5070184;28;20060;-53
2023/04/07 11:22:18;;;;;;;12.05;8.77;;;10.40;99.90;;;;;;5068968;28;20041;-54
2023/04/07 11:24:46;;;;;;;11.00;8.80;;;10.50;99.90;;;;;;5070550;28;20039;-50
2023/04/07 11:27:15;;;;;;;11.65;9.25;;;10.30;99.90;;;;;;5069437;28;20032;-53
2023/04/07 11:29:42;;;;;;;10.52;8.30;;;10.40;99.90;;;;;;5071714;28;20028;-52
2023/04/07 11:32:08;;;;;;;11.15;9.02;;;10.40;99.90;;;;;;5068851;28;20044;-54
2023/04/07 11:34:35;;;;;;;11.30;8.40;;;10.50;99.90;;;;;;5068564;28;20043;-54
2023/04/07 11:37:27;;;;;;;11.25;8.18;;;10.40;99.90;;;;;;5069889;28;20175;-52
2023/04/07 11:39:57;;;;;;;11.75;9.10;;;10.40;99.90;;;;;;5070050;28;20037;-55
2023/04/07 11:42:35;;;;;;;11.43;8.75;;;10.40;99.90;;;;;;5070528;28;20033;-50
2023/04/07 11:45:01;;;;;;;10.27;7.93;;;10.40;99.90;;;;;;5069801;28;20497;-56
2023/04/07 11:47:38;;;;;;;10.60;8.32;;;10.40;99.90;;;;;;5069916;28;20036;-53
2023/04/07 11:50:04;;;;;;;13.48;8.32;;;10.30;99.90;;;;;;5068811;28;20036;-54
2023/04/07 11:52:47;;;;;;;9.52;7.63;;;10.30;99.90;;;;;;5068563;28;20566;-52
2023/04/07 11:55:26;;;;;;;11.20;8.95;;;10.30;99.90;;;;;;5069668;28;20036;-53
2023/04/07 11:57:51;;;;;;;14.02;10.32;;;10.40;99.90;;;;;;5069056;28;20044;-51
2023/04/07 12:00:18;;;;;;;10.65;8.48;;;10.30;99.90;;;;;;5071558;28;20356;-50
2023/04/07 12:02:43;;;;;;;10.23;8.52;;;10.20;99.90;;;;;;5070097;28;20044;-57
2023/04/07 12:05:09;;;;;;;11.25;9.00;;;10.30;99.90;;;;;;5071376;28;20040;-47
2023/04/07 12:07:40;;;;;;;11.50;8.35;;;10.30;99.90;;;;;;5071163;28;20068;-55
2023/04/07 12:10:24;;;;;;;11.43;8.40;;;10.40;99.90;;;;;;5071302;28;20500;-54
2023/04/07 12:12:50;;;;;;;11.48;8.75;;;10.30;99.90;;;;;;5070090;28;20037;-51
2023/04/07 12:15:16;;;;;;;9.77;7.40;;;10.40;99.90;;;;;;5071266;28;20071;-56
2023/04/07 12:17:46;;;;;;;9.77;7.22;;;10.50;99.90;;;;;;5069528;28;20044;-51
2023/04/07 12:20:13;;;;;;;9.05;7.40;;;10.60;99.90;;;;;;5070046;28;20075;-56
2023/04/07 12:22:40;;;;;;;7.90;6.18;;;10.50;99.90;;;;;;5070909;28;20392;-50
2023/04/07 12:25:06;;;;;;;8.15;6.68;;;10.60;99.90;;;;;;5071062;28;20614;-51
2023/04/07 12:27:31;;;;;;;9.10;7.28;;;10.60;99.90;;;;;;5070621;28;20110;-56
2023/04/07 12:29:57;;;;;;;8.40;6.70;;;10.70;99.90;;;;;;5069187;28;20040;-53
2023/04/07 12:32:23;;;;;;;9.15;7.15;;;10.80;99.90;;;;;;5059150;28;20044;-55
2023/04/07 12:34:49;;;;;;;8.50;6.60;;;10.80;99.90;;;;;;5070589;28;20037;-55
2023/04/07 12:37:15;;;;;;;8.70;6.82;;;11.00;99.90;;;;;;5070588;28;20032;-48